createdAt,value
2022-11-04T11:42:46.758Z,12.80
2022-11-04T11:45:23.317Z,12.70
2022-11-04T11:47:57.477Z,13.10
2022-11-04T11:50:34.264Z,13.50
2022-11-04T11:53:17.070Z,13.90
2022-11-04T11:56:03.660Z,14.20
2022-11-04T12:01:46.810Z,14.70
2022-11-04T12:10:49.922Z,15.50
2022-11-04T12:13:35.823Z,15.70
2022-11-04T12:16:43.840Z,16.20
2022-11-04T12:19:50.363Z,16.60
2022-11-04T12:22:47.625Z,17.20
2022-11-04T12:25:31.041Z,17.70
2022-11-04T12:28:36.557Z,18.10
2022-11-04T12:31:06.163Z,18.20
2022-11-04T12:33:58.879Z,18.30
2022-11-04T12:36:39.705Z,18.40
2022-11-04T12:39:19.809Z,18.70
2022-11-04T12:42:26.708Z,19.10
2022-11-04T12:45:05.033Z,19.20
2022-11-04T12:47:49.257Z,19.20
2022-11-04T12:50:59.129Z,19.10
2022-11-04T12:53:52.949Z,18.80
2022-11-04T12:56:41.704Z,18.60
2022-11-04T12:59:42.136Z,18.30
2022-11-04T13:02:40.194Z,18.00
2022-11-04T13:05:40.619Z,17.80
2022-11-04T13:08:14.337Z,17.60
2022-11-04T13:11:22.631Z,17.50
2022-11-04T13:14:20.508Z,17.30
2022-11-04T13:16:53.048Z,17.20
2022-11-04T13:19:31.849Z,17.10
2022-11-04T13:22:11.652Z,17.00
2022-11-04T13:24:56.830Z,17.00
2022-11-04T13:27:34.066Z,16.90
2022-11-04T13:30:06.272Z,16.90
2022-11-04T13:32:53.926Z,16.80
2022-11-04T13:35:33.452Z,16.80
2022-11-04T13:38:12.795Z,16.80
2022-11-04T13:40:57.650Z,16.80
2022-11-04T13:43:39.484Z,16.80
2022-11-04T13:46:20.428Z,16.70
2022-11-04T13:49:15.973Z,16.70
2022-11-04T13:52:06.864Z,16.70
2022-11-04T13:54:41.900Z,16.70
2022-11-04T13:57:19.782Z,16.70
2022-11-04T14:00:18.534Z,16.60
2022-11-04T14:02:57.510Z,16.60
2022-11-04T14:05:27.530Z,16.60
2022-11-04T14:08:02.638Z,16.60
2022-11-04T14:10:52.597Z,16.50
2022-11-04T14:13:27.692Z,16.50
2022-11-04T14:16:24.713Z,16.50
2022-11-04T14:18:55.837Z,16.40
2022-11-04T14:21:26.702Z,16.30
2022-11-04T14:23:58.846Z,16.30
2022-11-04T14:26:42.773Z,16.30
2022-11-04T14:29:28.095Z,16.20
2022-11-04T14:32:02.186Z,16.20
2022-11-04T14:34:36.479Z,16.20
2022-11-04T14:37:25.247Z,16.20
2022-11-04T14:40:01.387Z,16.10
2022-11-04T14:42:56.303Z,16.10
2022-11-04T14:45:39.459Z,16.10
2022-11-04T14:48:21.478Z,16.00
2022-11-04T14:50:54.866Z,16.00
2022-11-04T14:53:37.708Z,16.00
2022-11-04T14:56:23.785Z,15.90
2022-11-04T14:59:05.487Z,15.90
2022-11-04T15:01:39.066Z,15.80
2022-11-04T15:04:32.631Z,15.80
2022-11-04T15:07:04.801Z,15.80
2022-11-04T15:09:41.430Z,15.80
2022-11-04T15:12:37.596Z,15.80
2022-11-04T15:15:27.469Z,15.80
2022-11-04T15:18:25.554Z,15.70
2022-11-04T15:21:03.183Z,15.70
2022-11-04T15:23:52.282Z,15.70
2022-11-04T15:26:32.274Z,15.70
2022-11-04T15:29:10.156Z,15.60
2022-11-04T15:31:52.767Z,15.60
2022-11-04T15:34:22.899Z,15.60
2022-11-04T15:37:04.016Z,15.50
2022-11-04T15:39:39.627Z,15.50
2022-11-04T15:42:32.886Z,15.40
2022-11-04T15:45:33.405Z,15.30
2022-11-04T15:48:38.535Z,15.30
2022-11-04T15:51:24.936Z,15.20
2022-11-04T15:54:18.584Z,15.20
2022-11-04T15:56:55.001Z,15.20
2022-11-04T15:59:35.441Z,15.10
2022-11-04T16:02:07.251Z,15.00
2022-11-04T16:04:38.906Z,15.00
2022-11-04T16:07:11.872Z,15.00
2022-11-04T16:09:51.250Z,15.00
2022-11-04T16:12:35.074Z,15.00
2022-11-04T16:15:02.483Z,14.90
2022-11-04T16:17:30.060Z,14.90
2022-11-04T16:20:05.972Z,14.80
2022-11-04T16:22:37.043Z,14.80
2022-11-04T16:25:21.585Z,14.80
2022-11-04T16:27:50.061Z,14.80
